createdAt,value
2023-03-24T00:01:26.691Z,9.64
2023-03-24T00:03:54.728Z,9.81
2023-03-24T00:06:26.846Z,9.83
2023-03-24T00:08:56.943Z,9.84
2023-03-24T00:11:25.629Z,10.02
2023-03-24T00:13:58.751Z,10.11
2023-03-24T00:16:26.881Z,9.99
2023-03-24T00:18:55.111Z,9.76
2023-03-24T00:21:25.258Z,9.78
2023-03-24T00:23:55.424Z,9.72
2023-03-24T00:26:25.651Z,9.72
2023-03-24T00:28:58.091Z,9.49
2023-03-24T00:31:26.172Z,9.31
2023-03-24T00:33:54.788Z,9.24
2023-03-24T00:36:25.956Z,9.28
2023-03-24T00:38:54.945Z,9.03
2023-03-24T00:41:25.022Z,9.08
2023-03-24T00:43:56.412Z,9.14
2023-03-24T00:46:30.610Z,9.15
2023-03-24T00:49:06.092Z,9.38
2023-03-24T00:51:41.858Z,9.35
2023-03-24T00:54:11.479Z,9.00
2023-03-24T00:56:40.822Z,8.99
2023-03-24T00:59:10.655Z,9.02
2023-03-24T01:01:41.519Z,9.04
2023-03-24T01:04:10.541Z,9.02
2023-03-24T01:06:38.716Z,9.13
2023-03-24T01:09:07.083Z,9.27
2023-03-24T01:11:38.942Z,9.11
2023-03-24T01:14:06.612Z,8.96
2023-03-24T01:16:34.023Z,8.84
2023-03-24T01:19:01.718Z,8.83
2023-03-24T01:21:29.392Z,8.76
2023-03-24T01:23:56.783Z,8.73
2023-03-24T01:26:24.229Z,8.72
2023-03-24T01:28:51.799Z,8.79
2023-03-24T01:31:19.322Z,8.75
2023-03-24T01:33:47.054Z,8.78
2023-03-24T01:36:14.670Z,8.80
2023-03-24T01:38:42.587Z,8.70
2023-03-24T01:41:10.148Z,8.67
2023-03-24T01:43:37.581Z,8.90
2023-03-24T01:46:19.973Z,8.67
2023-03-24T01:48:55.245Z,8.53
2023-03-24T01:51:27.440Z,8.60
2023-03-24T01:53:57.794Z,8.59
2023-03-24T01:56:27.330Z,8.60
2023-03-24T01:59:02.429Z,8.55
2023-03-24T02:01:32.281Z,8.46
2023-03-24T02:04:04.526Z,8.40
2023-03-24T02:06:41.401Z,8.38
2023-03-24T02:09:10.788Z,8.32
2023-03-24T02:11:40.799Z,8.35
2023-03-24T02:14:14.303Z,8.36
2023-03-24T02:16:51.045Z,8.44
2023-03-24T02:19:56.199Z,8.50
2023-03-24T02:23:12.307Z,8.43
2023-03-24T02:26:01.265Z,8.28
2023-03-24T02:28:40.531Z,8.16
2023-03-24T02:31:07.875Z,8.13
2023-03-24T02:34:12.578Z,8.22
2023-03-24T02:37:18.910Z,8.21
2023-03-24T02:39:59.274Z,8.05
2023-03-24T02:43:05.362Z,8.11
2023-03-24T02:45:37.337Z,8.16
2023-03-24T02:48:32.721Z,8.11
2023-03-24T02:51:03.007Z,7.97
2023-03-24T02:53:38.890Z,7.94
2023-03-24T02:56:13.835Z,7.87
2023-03-24T02:58:46.529Z,7.97
2023-03-24T03:01:31.658Z,7.88
2023-03-24T03:04:06.955Z,7.78
2023-03-24T03:06:40.412Z,7.66
2023-03-24T03:09:11.883Z,7.71
2023-03-24T03:11:42.858Z,7.67
2023-03-24T03:14:35.457Z,7.70
2023-03-24T03:17:09.112Z,7.68
2023-03-24T03:19:44.358Z,7.66
2023-03-24T03:22:18.003Z,7.64
2023-03-24T03:24:53.228Z,7.62
2023-03-24T03:27:27.355Z,7.60
2023-03-24T03:30:09.352Z,7.45
2023-03-24T03:32:43.384Z,7.13
2023-03-24T03:35:14.387Z,7.39
2023-03-24T03:38:19.571Z,7.52
2023-03-24T03:40:55.811Z,7.68
2023-03-24T03:43:25.890Z,7.57
2023-03-24T03:45:55.098Z,7.50
2023-03-24T03:48:26.542Z,7.60
2023-03-24T03:51:10.284Z,7.51
2023-03-24T03:54:09.219Z,7.54
2023-03-24T03:56:38.546Z,7.53
2023-03-24T03:59:07.560Z,7.62
2023-03-24T04:01:38.226Z,7.67
2023-03-24T04:04:33.360Z,7.64
2023-03-24T04:07:10.885Z,7.79
2023-03-24T04:09:49.962Z,7.84
2023-03-24T04:12:59.971Z,7.72
2023-03-24T04:15:48.888Z,7.98
2023-03-24T04:18:19.407Z,7.81
2023-03-24T04:21:13.913Z,7.83
2023-03-24T04:23:54.386Z,7.66
2023-03-24T04:27:03.085Z,7.74
2023-03-24T04:29:37.114Z,7.67
2023-03-24T04:32:41.498Z,7.76
2023-03-24T04:35:33.043Z,8.12
2023-03-24T04:38:04.873Z,8.13
2023-03-24T04:40:36.795Z,8.16
2023-03-24T04:43:09.580Z,7.88
2023-03-24T04:45:37.475Z,7.94
2023-03-24T04:48:10.041Z,7.95
2023-03-24T04:50:54.397Z,8.14
2023-03-24T04:53:22.966Z,8.09
2023-03-24T04:55:50.297Z,8.19
2023-03-24T04:58:22.235Z,8.32
2023-03-24T05:00:51.307Z,8.59
2023-03-24T05:03:19.384Z,8.72
2023-03-24T05:05:50.751Z,8.87
2023-03-24T05:08:20.109Z,9.00
2023-03-24T05:10:47.858Z,9.03
2023-03-24T05:13:16.292Z,9.14
2023-03-24T05:15:44.278Z,9.22
2023-03-24T05:18:11.906Z,9.31
2023-03-24T05:20:41.307Z,9.22
2023-03-24T05:23:08.777Z,9.34
2023-03-24T05:25:36.202Z,9.45
2023-03-24T05:28:03.792Z,9.59
2023-03-24T05:30:31.687Z,9.59
2023-03-24T05:32:59.828Z,9.72
2023-03-24T05:35:27.646Z,9.48
2023-03-24T05:37:55.297Z,9.70
2023-03-24T05:40:22.799Z,9.88
2023-03-24T05:42:51.109Z,9.88
2023-03-24T05:45:20.191Z,9.98
2023-03-24T05:47:48.499Z,10.12
2023-03-24T05:50:16.212Z,10.25
2023-03-24T05:52:46.667Z,10.36
2023-03-24T05:55:16.151Z,10.31
2023-03-24T05:57:45.876Z,10.44
2023-03-24T06:00:17.423Z,10.88
2023-03-24T06:02:46.113Z,10.91
2023-03-24T06:05:13.650Z,10.97
2023-03-24T06:07:46.467Z,11.04
2023-03-24T06:10:14.628Z,11.08
2023-03-24T06:12:45.505Z,11.19
2023-03-24T06:15:17.471Z,11.07
2023-03-24T06:17:47.777Z,11.13
2023-03-24T06:20:16.281Z,11.31
2023-03-24T06:22:45.496Z,11.43
2023-03-24T06:25:20.821Z,11.49
2023-03-24T06:27:48.878Z,11.48
2023-03-24T06:30:19.067Z,11.43
2023-03-24T06:32:47.666Z,11.55
2023-03-24T06:35:16.259Z,11.62
2023-03-24T06:37:43.996Z,11.86
2023-03-24T06:40:15.972Z,12.07
2023-03-24T06:42:43.505Z,12.11
2023-03-24T06:45:11.963Z,12.40
2023-03-24T06:47:40.856Z,12.62
2023-03-24T06:50:08.665Z,12.78
2023-03-24T06:52:36.652Z,12.98
2023-03-24T06:55:06.407Z,13.38
2023-03-24T06:57:34.171Z,13.67
2023-03-24T07:00:09.376Z,13.75
2023-03-24T07:02:38.534Z,13.75
2023-03-24T07:05:07.908Z,13.94
2023-03-24T07:10:09.157Z,14.33
2023-03-24T07:12:37.537Z,14.62
2023-03-24T07:15:05.206Z,14.85
2023-03-24T07:17:32.656Z,14.99
2023-03-24T07:20:00.102Z,15.05
2023-03-24T07:22:38.286Z,15.10
2023-03-24T07:25:06.534Z,15.12
2023-03-24T07:27:35.676Z,15.16
2023-03-24T07:30:03.114Z,14.97
2023-03-24T07:32:35.105Z,14.88
2023-03-24T07:35:02.803Z,15.25
2023-03-24T07:37:31.556Z,15.46
2023-03-24T07:39:59.314Z,15.81
2023-03-24T07:42:27.135Z,15.61
2023-03-24T07:44:54.465Z,15.66
2023-03-24T07:47:29.152Z,15.81
2023-03-24T07:49:57.078Z,16.27
2023-03-24T07:52:24.548Z,16.10
2023-03-24T07:54:53.567Z,16.11
2023-03-24T07:57:21.687Z,16.35
2023-03-24T07:59:51.241Z,16.52
2023-03-24T08:02:20.173Z,16.73
2023-03-24T08:04:53.838Z,16.85
2023-03-24T08:07:24.911Z,17.30
2023-03-24T08:09:52.467Z,17.52
2023-03-24T08:12:20.682Z,17.57
2023-03-24T08:14:48.300Z,17.84
2023-03-24T08:17:15.854Z,18.18
2023-03-24T08:19:58.449Z,18.20
2023-03-24T08:22:27.764Z,18.43
2023-03-24T08:24:55.185Z,18.12
2023-03-24T08:27:29.216Z,18.24
2023-03-24T08:29:56.796Z,18.19
2023-03-24T08:32:24.702Z,18.28
2023-03-24T08:34:52.343Z,18.36
2023-03-24T08:37:19.757Z,18.61
2023-03-24T08:39:47.655Z,18.77
2023-03-24T08:42:15.179Z,18.77
2023-03-24T08:44:42.716Z,18.51
2023-03-24T08:47:10.371Z,18.73
2023-03-24T08:49:38.186Z,18.75
2023-03-24T08:52:05.662Z,18.74
2023-03-24T08:54:33.585Z,19.00
2023-03-24T08:57:01.025Z,19.22
2023-03-24T08:59:29.285Z,19.11
2023-03-24T09:01:56.803Z,19.33
2023-03-24T09:04:25.223Z,19.28
2023-03-24T09:06:53.734Z,19.41
2023-03-24T09:09:21.252Z,19.52
2023-03-24T09:11:50.032Z,19.56
2023-03-24T09:14:17.503Z,19.42
2023-03-24T09:16:45.389Z,19.56
2023-03-24T09:19:15.651Z,19.58
2023-03-24T09:21:47.896Z,19.52
2023-03-24T09:24:15.413Z,19.67
2023-03-24T09:26:42.912Z,19.54
2023-03-24T09:29:10.384Z,19.67
2023-03-24T09:31:41.424Z,19.89
2023-03-24T09:34:08.939Z,19.44
2023-03-24T09:36:36.758Z,19.94
2023-03-24T09:39:04.240Z,20.02
2023-03-24T09:41:38.680Z,20.03
2023-03-24T09:44:21.784Z,20.23
2023-03-24T09:47:02.075Z,20.30
2023-03-24T09:49:34.816Z,20.23
2023-03-24T09:52:06.595Z,20.24
2023-03-24T09:54:41.152Z,20.24
2023-03-24T09:57:20.822Z,20.29
2023-03-24T09:59:48.953Z,20.45
2023-03-24T10:02:19.813Z,20.68
2023-03-24T10:04:48.306Z,20.79
2023-03-24T10:07:47.667Z,21.06
2023-03-24T10:10:29.941Z,21.24
2023-03-24T10:13:07.263Z,21.10
2023-03-24T10:15:55.289Z,20.83
2023-03-24T10:18:28.969Z,21.26
2023-03-24T10:21:12.167Z,20.81
2023-03-24T10:24:17.322Z,20.78
2023-03-24T10:27:34.299Z,21.02
2023-03-24T10:30:26.968Z,21.38
2023-03-24T10:32:58.429Z,21.54
2023-03-24T10:36:02.179Z,22.09
2023-03-24T10:38:35.733Z,22.13
2023-03-24T10:41:04.317Z,22.04
2023-03-24T10:43:32.429Z,22.64
2023-03-24T10:46:02.356Z,22.86
2023-03-24T10:48:51.676Z,22.55
2023-03-24T10:51:26.731Z,22.41
2023-03-24T10:54:16.943Z,22.21
2023-03-24T10:57:03.725Z,21.98
2023-03-24T10:59:37.473Z,21.71
2023-03-24T11:02:11.163Z,21.75
2023-03-24T11:04:41.783Z,21.85
2023-03-24T11:07:20.997Z,21.70
2023-03-24T11:10:11.779Z,21.25
2023-03-24T11:12:41.724Z,21.02
2023-03-24T11:15:22.497Z,20.42
2023-03-24T11:18:08.927Z,20.49
2023-03-24T11:20:39.394Z,20.30
2023-03-24T11:23:20.032Z,20.31
2023-03-24T11:26:19.120Z,19.92
2023-03-24T11:28:52.347Z,19.78
2023-03-24T11:31:30.986Z,19.78
2023-03-24T11:34:09.428Z,19.88
2023-03-24T11:36:45.287Z,19.42
2023-03-24T11:39:18.124Z,19.72
2023-03-24T11:42:02.332Z,19.61
2023-03-24T11:44:38.879Z,19.98
2023-03-24T11:47:31.745Z,19.95
2023-03-24T11:50:11.732Z,19.93
2023-03-24T11:52:49.220Z,19.91
2023-03-24T11:55:23.134Z,19.92
2023-03-24T11:57:55.501Z,19.78
2023-03-24T12:00:30.518Z,20.19
2023-03-24T12:03:18.652Z,20.02
2023-03-24T12:05:52.881Z,20.23
2023-03-24T12:09:04.738Z,20.54
2023-03-24T12:11:59.522Z,20.64
2023-03-24T12:14:47.302Z,20.39
2023-03-24T12:17:24.060Z,20.35
2023-03-24T12:20:01.150Z,20.70
2023-03-24T12:23:04.742Z,20.87
2023-03-24T12:26:00.498Z,20.78
2023-03-24T12:28:40.668Z,21.12
2023-03-24T12:31:28.953Z,21.37
2023-03-24T12:34:26.352Z,21.38
2023-03-24T12:37:15.031Z,21.45
2023-03-24T12:40:32.405Z,21.34
2023-03-24T12:43:25.062Z,22.25
2023-03-24T12:45:55.498Z,22.18
2023-03-24T12:49:10.973Z,22.41
2023-03-24T12:51:51.912Z,23.08
2023-03-24T12:54:30.164Z,23.06
2023-03-24T12:57:05.590Z,23.69
2023-03-24T12:59:53.775Z,24.01
2023-03-24T13:02:36.163Z,23.52
2023-03-24T13:05:08.725Z,23.40
2023-03-24T13:07:44.037Z,24.01
2023-03-24T13:10:18.337Z,24.47
2023-03-24T13:13:10.344Z,24.98
2023-03-24T13:15:52.453Z,25.35
2023-03-24T13:18:44.531Z,24.91
2023-03-24T13:21:18.143Z,24.97
2023-03-24T13:24:09.347Z,25.38
2023-03-24T13:26:54.351Z,24.90
2023-03-24T13:29:59.196Z,24.90
2023-03-24T13:32:35.052Z,24.22
2023-03-24T13:35:34.892Z,23.98
2023-03-24T13:38:08.366Z,24.66
2023-03-24T13:40:39.925Z,24.84
2023-03-24T13:43:17.852Z,24.95
2023-03-24T13:46:00.320Z,25.19
2023-03-24T13:48:41.977Z,24.77
2023-03-24T13:51:38.271Z,25.02
2023-03-24T13:54:23.127Z,24.71
2023-03-24T13:56:53.857Z,24.67
2023-03-24T13:59:41.741Z,25.41
2023-03-24T14:02:11.255Z,25.34
2023-03-24T14:05:01.642Z,25.10
2023-03-24T14:07:34.047Z,25.12
2023-03-24T14:10:22.753Z,24.83
2023-03-24T14:12:56.257Z,23.77
2023-03-24T14:15:34.603Z,23.88
2023-03-24T14:18:23.507Z,23.89
2023-03-24T14:20:57.623Z,23.29
2023-03-24T14:23:40.287Z,22.99
2023-03-24T14:26:34.494Z,22.57
2023-03-24T14:29:02.807Z,22.44
2023-03-24T14:31:36.695Z,22.52
2023-03-24T14:34:25.558Z,22.63
2023-03-24T14:37:03.925Z,22.38
2023-03-24T14:39:40.777Z,22.18
2023-03-24T14:42:28.731Z,21.49
2023-03-24T14:44:58.575Z,20.90
2023-03-24T14:47:29.871Z,20.99
2023-03-24T14:50:00.985Z,20.65
2023-03-24T14:52:40.011Z,20.50
2023-03-24T14:55:12.602Z,20.14
2023-03-24T14:57:43.128Z,20.13
2023-03-24T15:00:20.333Z,19.96
2023-03-24T15:02:52.246Z,19.54
2023-03-24T15:05:31.262Z,19.16
2023-03-24T15:08:22.392Z,19.25
2023-03-24T15:11:02.241Z,19.05
2023-03-24T15:13:50.008Z,18.82
2023-03-24T15:16:24.008Z,18.83
2023-03-24T15:21:41.113Z,18.60
2023-03-24T15:24:21.338Z,18.64
2023-03-24T15:26:54.350Z,18.56
2023-03-24T15:29:23.514Z,18.54
2023-03-24T15:31:51.331Z,18.64
2023-03-24T15:34:42.268Z,18.59
2023-03-24T15:37:41.627Z,18.64
2023-03-24T15:40:27.561Z,18.51
2023-03-24T15:42:57.884Z,18.55
2023-03-24T15:45:30.100Z,18.48
2023-03-24T15:48:05.808Z,18.44
2023-03-24T15:50:39.408Z,18.48
2023-03-24T15:53:23.665Z,18.35
2023-03-24T15:56:05.246Z,18.12
2023-03-24T15:58:47.615Z,18.28
2023-03-24T16:01:20.136Z,18.09
2023-03-24T16:03:48.556Z,17.92
2023-03-24T16:06:26.814Z,17.72
2023-03-24T16:08:54.328Z,17.68
2023-03-24T16:11:22.521Z,17.70
2023-03-24T16:13:54.535Z,17.46
2023-03-24T16:16:28.244Z,17.41
2023-03-24T16:18:57.036Z,17.62
2023-03-24T16:21:27.165Z,17.40
2023-03-24T16:23:58.586Z,17.29
2023-03-24T16:26:29.689Z,17.24
2023-03-24T16:29:20.165Z,17.13
2023-03-24T16:31:49.909Z,17.22
2023-03-24T16:34:19.418Z,17.10
2023-03-24T16:36:52.159Z,16.86
2023-03-24T16:39:27.984Z,16.88
2023-03-24T16:42:00.855Z,16.72
2023-03-24T16:44:28.814Z,16.69
2023-03-24T16:46:56.364Z,16.75
2023-03-24T16:49:24.385Z,16.48
2023-03-24T16:51:53.302Z,16.16
2023-03-24T16:54:25.460Z,16.03
2023-03-24T16:56:53.472Z,16.04
2023-03-24T16:59:20.886Z,15.99
2023-03-24T17:01:53.523Z,15.79
2023-03-24T17:04:25.890Z,15.88
2023-03-24T17:06:57.856Z,15.73
2023-03-24T17:09:25.851Z,15.63
2023-03-24T17:11:57.511Z,15.43
2023-03-24T17:14:32.774Z,15.44
2023-03-24T17:17:02.959Z,15.44
2023-03-24T17:19:31.272Z,15.34
2023-03-24T17:22:04.509Z,15.32
2023-03-24T17:24:36.762Z,15.27
2023-03-24T17:27:12.648Z,15.45
2023-03-24T17:29:40.935Z,15.19
2023-03-24T17:32:09.253Z,15.16
2023-03-24T17:34:38.022Z,15.17
2023-03-24T17:37:06.192Z,15.07
2023-03-24T17:39:33.567Z,14.94
2023-03-24T17:42:05.586Z,14.78
2023-03-24T17:44:34.028Z,14.61
2023-03-24T17:47:01.723Z,14.50
2023-03-24T17:49:48.960Z,14.66
2023-03-24T17:52:16.857Z,14.61
2023-03-24T17:54:45.904Z,14.68
2023-03-24T17:57:13.368Z,14.68
2023-03-24T17:59:44.470Z,14.62
2023-03-24T18:02:13.673Z,14.60
2023-03-24T18:04:41.013Z,14.47
2023-03-24T18:07:09.653Z,14.27
2023-03-24T18:09:37.996Z,14.09
2023-03-24T18:12:13.023Z,14.06
2023-03-24T18:14:40.990Z,14.16
2023-03-24T18:17:09.617Z,13.94
2023-03-24T18:19:41.712Z,13.77
2023-03-24T18:22:09.799Z,13.83
2023-03-24T18:24:37.302Z,13.76
2023-03-24T18:27:09.875Z,13.76
2023-03-24T18:29:39.615Z,13.63
2023-03-24T18:32:07.117Z,13.51
2023-03-24T18:34:36.038Z,13.36
2023-03-24T18:37:03.534Z,13.35
2023-03-24T18:39:30.933Z,13.36
2023-03-24T18:41:58.389Z,13.32
2023-03-24T18:44:25.731Z,13.33
2023-03-24T18:46:55.625Z,13.22
2023-03-24T18:49:23.091Z,13.11
2023-03-24T18:51:50.616Z,13.26
2023-03-24T18:54:18.141Z,13.17
2023-03-24T18:56:45.883Z,13.14
2023-03-24T18:59:16.285Z,13.06
2023-03-24T19:01:47.331Z,13.01
2023-03-24T19:04:15.493Z,13.08
2023-03-24T19:06:43.415Z,12.98
2023-03-24T19:09:20.255Z,13.08
2023-03-24T19:11:48.271Z,12.95
2023-03-24T19:14:16.079Z,13.02
2023-03-24T19:16:45.747Z,12.98
2023-03-24T19:19:13.203Z,12.95
2023-03-24T19:21:41.942Z,12.69
2023-03-24T19:24:09.531Z,12.67
2023-03-24T19:26:37.366Z,12.69
2023-03-24T19:29:07.115Z,12.62
2023-03-24T19:31:35.253Z,12.71
2023-03-24T19:34:02.995Z,12.40
2023-03-24T19:36:32.153Z,12.26
2023-03-24T19:39:01.959Z,12.37
2023-03-24T19:41:29.556Z,12.34
2023-03-24T19:43:57.075Z,12.35
2023-03-24T19:46:29.494Z,12.23
2023-03-24T19:48:57.092Z,12.15
2023-03-24T19:51:24.926Z,12.05
2023-03-24T19:53:53.327Z,11.96
2023-03-24T19:56:21.982Z,11.95
2023-03-24T19:58:53.246Z,12.00
2023-03-24T20:01:21.598Z,11.87
2023-03-24T20:03:49.442Z,12.02
2023-03-24T20:06:19.633Z,11.76
2023-03-24T20:08:49.579Z,11.74
2023-03-24T20:11:17.102Z,11.80
2023-03-24T20:13:48.480Z,11.72
2023-03-24T20:16:16.574Z,11.76
2023-03-24T20:18:44.185Z,11.57
2023-03-24T20:21:22.719Z,11.64
2023-03-24T20:23:51.567Z,11.62
2023-03-24T20:26:20.629Z,11.43
2023-03-24T20:28:48.381Z,11.31
2023-03-24T20:31:16.517Z,11.16
2023-03-24T20:33:44.501Z,11.38
2023-03-24T20:36:12.541Z,11.33
2023-03-24T20:38:40.074Z,11.41
2023-03-24T20:41:08.333Z,11.45
2023-03-24T20:43:37.889Z,11.46
2023-03-24T20:46:09.802Z,11.38
2023-03-24T20:48:38.570Z,11.26
2023-03-24T20:51:06.129Z,11.12
2023-03-24T20:53:35.045Z,11.05
2023-03-24T20:56:08.460Z,11.02
2023-03-24T20:58:38.133Z,10.84
2023-03-24T21:01:08.245Z,10.67
2023-03-24T21:03:36.744Z,10.63
2023-03-24T21:06:04.906Z,10.78
2023-03-24T21:08:32.515Z,10.72
2023-03-24T21:11:02.846Z,10.75
2023-03-24T21:13:37.344Z,10.61
2023-03-24T21:16:08.267Z,10.66
2023-03-24T21:18:44.056Z,10.74
2023-03-24T21:21:13.091Z,10.79
2023-03-24T21:23:41.875Z,10.93
2023-03-24T21:26:17.037Z,10.86
2023-03-24T21:28:46.072Z,10.89
2023-03-24T21:31:20.086Z,10.80
2023-03-24T21:33:48.174Z,10.74
2023-03-24T21:36:15.775Z,10.74
2023-03-24T21:38:43.805Z,10.76
2023-03-24T21:41:12.348Z,10.62
2023-03-24T21:43:41.090Z,10.48
2023-03-24T21:46:14.955Z,10.50
2023-03-24T21:48:50.196Z,10.38
2023-03-24T21:51:24.111Z,10.52
2023-03-24T21:53:55.808Z,10.48
2023-03-24T21:56:23.681Z,10.47
2023-03-24T21:58:54.759Z,10.33
2023-03-24T22:01:23.690Z,10.35
2023-03-24T22:03:54.376Z,10.36
2023-03-24T22:06:25.066Z,10.56
2023-03-24T22:08:53.283Z,10.55
2023-03-24T22:11:20.812Z,10.53
2023-03-24T22:13:53.228Z,10.53
2023-03-24T22:16:20.847Z,10.45
2023-03-24T22:18:48.364Z,10.31
2023-03-24T22:21:18.088Z,10.19
2023-03-24T22:23:46.112Z,10.46
2023-03-24T22:26:15.516Z,10.47
2023-03-24T22:28:44.919Z,10.34
2023-03-24T22:31:16.299Z,10.42
2023-03-24T22:33:44.698Z,10.40
2023-03-24T22:36:12.556Z,10.50
2023-03-24T22:38:40.556Z,10.53
2023-03-24T22:41:12.264Z,10.58
2023-03-24T22:43:42.411Z,10.35
2023-03-24T22:46:10.888Z,10.35
2023-03-24T22:48:40.464Z,10.36
2023-03-24T22:51:09.665Z,10.26
2023-03-24T22:53:40.419Z,10.08
2023-03-24T22:56:09.179Z,10.03
2023-03-24T22:58:36.574Z,9.85
2023-03-24T23:01:06.244Z,9.86
2023-03-24T23:03:35.014Z,9.84
2023-03-24T23:06:04.480Z,9.92
2023-03-24T23:08:34.156Z,9.94
2023-03-24T23:11:01.608Z,9.98
2023-03-24T23:13:30.882Z,9.93
2023-03-24T23:16:10.731Z,9.97
2023-03-24T23:18:38.684Z,9.81
2023-03-24T23:21:11.893Z,9.85
2023-03-24T23:23:40.899Z,10.04
2023-03-24T23:26:25.436Z,10.08
2023-03-24T23:28:54.346Z,10.05
2023-03-24T23:31:25.862Z,9.95
2023-03-24T23:33:56.926Z,9.82
2023-03-24T23:36:26.421Z,9.78
2023-03-24T23:38:54.793Z,9.67
2023-03-24T23:41:24.535Z,9.70
2023-03-24T23:43:53.052Z,9.54
2023-03-24T23:46:20.947Z,9.70
2023-03-24T23:48:49.271Z,9.76
2023-03-24T23:51:18.672Z,9.84
2023-03-24T23:53:46.217Z,9.73
2023-03-24T23:56:21.820Z,9.75
2023-03-24T23:58:49.457Z,9.72
